Time;durP1;ratioP1;P1;durP2;ratioP2;P2;SDS_P1;SDS_P2;PMS_P1;PMS_P2;Temp;Humidity;BMP_temperature;BMP_pressure;BME280_temperature;BME280_humidity;BME280_pressure;Samples;Min_cycle;Max_cycle;Signal;HPM_P1;HPM_P2
2021/07/25 00:00:43;;;;;;;4.20;2.72;;;;;;;;;;5005737;28;20072;-75
2021/07/25 00:03:10;;;;;;;5.40;2.83;;;;;;;;;;4998619;28;20045;-75
2021/07/25 00:05:36;;;;;;;3.92;2.97;;;;;;;;;;5008793;28;20060;-75
2021/07/25 00:08:03;;;;;;;4.30;2.95;;;;;;;;;;5003135;28;20058;-75
2021/07/25 00:10:29;;;;;;;4.13;2.90;;;;;;;;;;4999897;28;20498;-76
2021/07/25 00:12:56;;;;;;;3.38;2.72;;;;;;;;;;5007507;28;20064;-76
2021/07/25 00:15:23;;;;;;;3.38;2.53;;;;;;;;;;5010773;28;20069;-77
2021/07/25 00:17:49;;;;;;;3.10;2.70;;;;;;;;;;5010756;28;20069;-76
2021/07/25 00:20:16;;;;;;;4.00;2.80;;;;;;;;;;5016134;28;20072;-77
2021/07/25 00:22:42;;;;;;;3.00;2.40;;;;;;;;;;5004397;28;20077;-76
2021/07/25 00:25:09;;;;;;;3.83;3.05;;;;;;;;;;5001155;28;20452;-76
2021/07/25 00:27:40;;;;;;;3.15;2.60;;;;;;;;;;5011387;28;20131;-74
2021/07/25 00:30:10;;;;;;;4.53;2.87;;;;;;;;;;5013169;28;20065;-75
2021/07/25 00:32:36;;;;;;;3.67;2.80;;;;;;;;;;5002839;28;20061;-75
2021/07/25 00:35:03;;;;;;;3.95;2.85;;;;;;;;;;4983417;28;20053;-75
2021/07/25 00:37:29;;;;;;;3.55;2.60;;;;;;;;;;5008254;28;20571;-74
2021/07/25 00:39:56;;;;;;;5.07;3.15;;;;;;;;;;5002479;28;20069;-75
2021/07/25 00:42:23;;;;;;;3.88;2.75;;;;;;;;;;5011287;28;20445;-76
2021/07/25 00:44:49;;;;;;;4.85;3.05;;;;;;;;;;5015113;28;20115;-75
2021/07/25 00:47:19;;;;;;;4.53;2.70;;;;;;;;;;4987357;28;20493;-76
2021/07/25 00:49:45;;;;;;;4.40;2.80;;;;;;;;;;5009757;28;20573;-76
2021/07/25 00:52:12;;;;;;;3.65;2.88;;;;;;;;;;5003340;28;20056;-78
2021/07/25 00:54:38;;;;;;;5.72;3.13;;;;;;;;;;5004031;28;20065;-76
2021/07/25 00:57:05;;;;;;;3.92;2.85;;;;;;;;;;5002273;28;20092;-76
2021/07/25 00:59:31;;;;;;;5.13;2.95;;;;;;;;;;5003401;28;20069;-75
2021/07/25 01:01:58;;;;;;;3.80;2.83;;;;;;;;;;5004142;28;20061;-76
2021/07/25 01:04:39;;;;;;;3.45;2.85;;;;;;;;;;4988159;28;20104;-76
2021/07/25 01:07:11;;;;;;;4.05;2.47;;;;;;;;;;5006794;28;20057;-76
2021/07/25 01:09:53;;;;;;;5.20;3.10;;;;;;;;;;5004180;28;22179;-76
2021/07/25 01:12:19;;;;;;;;;;;;;;;;;;4996249;28;20571;-76
2021/07/25 01:14:47;;;;;;;3.55;2.90;;;;;;;;;;5004716;28;19945;-75
2021/07/25 01:17:22;;;;;;;4.03;2.95;;;;;;;;;;5005766;28;20062;-76
2021/07/25 01:19:49;;;;;;;3.53;2.88;;;;;;;;;;5006641;28;20116;-75
2021/07/25 01:22:16;;;;;;;4.38;3.28;;;;;;;;;;5013506;28;20526;-77
2021/07/25 01:24:43;;;;;;;4.53;3.28;;;;;;;;;;5002396;28;20072;-76
2021/07/25 01:27:16;;;;;;;4.75;2.60;;;;;;;;;;5007100;28;20096;-76
2021/07/25 01:29:43;;;;;;;3.92;3.13;;;;;;;;;;5002736;28;20138;-76
2021/07/25 01:32:10;;;;;;;4.72;3.25;;;;;;;;;;5005812;28;20128;-75
2021/07/25 01:34:37;;;;;;;4.18;3.05;;;;;;;;;;5012251;28;20054;-75
2021/07/25 01:37:04;;;;;;;3.90;3.20;;;;;;;;;;5004559;28;20431;-75
2021/07/25 01:39:30;;;;;;;3.83;3.13;;;;;;;;;;5006388;28;20062;-75
2021/07/25 01:41:56;;;;;;;3.75;2.80;;;;;;;;;;5006365;28;20669;-75
2021/07/25 01:44:23;;;;;;;4.97;3.30;;;;;;;;;;5000829;28;20111;-75
2021/07/25 01:46:49;;;;;;;3.80;3.10;;;;;;;;;;4994135;28;20085;-74
2021/07/25 01:49:16;;;;;;;4.10;3.10;;;;;;;;;;5016538;28;20065;-76
2021/07/25 01:51:42;;;;;;;4.65;3.20;;;;;;;;;;5012991;28;20052;-75
2021/07/25 01:54:08;;;;;;;3.55;2.78;;;;;;;;;;4992858;28;20413;-75
2021/07/25 01:56:35;;;;;;;4.32;3.25;;;;;;;;;;5008677;28;20046;-76
2021/07/25 01:59:01;;;;;;;4.60;3.05;;;;;;;;;;5019785;28;20124;-75
2021/07/25 02:01:27;;;;;;;4.18;3.20;;;;;;;;;;5000394;28;20509;-75
2021/07/25 02:03:54;;;;;;;3.80;3.05;;;;;;;;;;5007288;28;20061;-75
2021/07/25 02:06:22;;;;;;;3.58;2.78;;;;;;;;;;5011946;28;20057;-76
2021/07/25 02:08:48;;;;;;;4.35;2.90;;;;;;;;;;5009150;28;20104;-76
2021/07/25 02:11:15;;;;;;;4.35;3.28;;;;;;;;;;5011712;28;20537;-76
2021/07/25 02:13:41;;;;;;;4.05;3.00;;;;;;;;;;5011175;28;20579;-76
2021/07/25 02:16:07;;;;;;;3.53;2.50;;;;;;;;;;5020072;28;20127;-76
2021/07/25 02:18:34;;;;;;;4.90;3.00;;;;;;;;;;5002211;28;20151;-76
2021/07/25 02:21:00;;;;;;;3.53;2.67;;;;;;;;;;5012469;28;20069;-76
2021/07/25 02:23:27;;;;;;;3.35;2.38;;;;;;;;;;5004772;28;20131;-76
2021/07/25 02:25:53;;;;;;;4.30;2.53;;;;;;;;;;5003879;28;20057;-76
2021/07/25 02:28:19;;;;;;;3.75;2.50;;;;;;;;;;5009070;28;20490;-76
2021/07/25 02:30:46;;;;;;;3.17;2.38;;;;;;;;;;5008379;28;20053;-76
2021/07/25 02:33:12;;;;;;;3.65;2.40;;;;;;;;;;5002431;28;20062;-77
2021/07/25 02:35:38;;;;;;;3.85;3.00;;;;;;;;;;5003271;28;20057;-76
2021/07/25 02:38:05;;;;;;;3.85;2.70;;;;;;;;;;5008040;28;20100;-75
2021/07/25 02:40:31;;;;;;;3.40;2.40;;;;;;;;;;5003111;28;20058;-76
2021/07/25 02:42:58;;;;;;;3.00;2.20;;;;;;;;;;5007612;28;20057;-76
2021/07/25 02:45:24;;;;;;;2.97;2.33;;;;;;;;;;5013719;28;20524;-77
2021/07/25 02:47:50;;;;;;;4.32;2.58;;;;;;;;;;5004365;28;20077;-76
2021/07/25 02:50:17;;;;;;;3.85;2.28;;;;;;;;;;5009473;28;20057;-77
2021/07/25 02:52:43;;;;;;;3.55;2.33;;;;;;;;;;4997921;28;20462;-76
2021/07/25 02:55:10;;;;;;;3.67;2.72;;;;;;;;;;5009463;28;20438;-76
2021/07/25 02:57:36;;;;;;;3.47;2.22;;;;;;;;;;5018535;28;20062;-77
2021/07/25 03:00:04;;;;;;;3.72;2.60;;;;;;;;;;5009212;28;20061;-76
2021/07/25 03:02:30;;;;;;;3.58;2.30;;;;;;;;;;5003033;28;20065;-76
2021/07/25 03:04:57;;;;;;;4.03;2.35;;;;;;;;;;5001257;28;20062;-76
2021/07/25 03:07:23;;;;;;;2.63;2.00;;;;;;;;;;5006076;28;20054;-75
2021/07/25 03:09:49;;;;;;;3.78;2.10;;;;;;;;;;5003351;28;20185;-75
2021/07/25 03:12:16;;;;;;;3.33;2.08;;;;;;;;;;5010195;28;20069;-75
2021/07/25 03:14:42;;;;;;;3.03;2.30;;;;;;;;;;5012578;28;20038;-75
2021/07/25 03:17:09;;;;;;;2.90;2.28;;;;;;;;;;5001346;28;20447;-75
2021/07/25 03:19:35;;;;;;;2.58;1.98;;;;;;;;;;5004856;28;20489;-75
2021/07/25 03:22:04;;;;;;;3.45;2.10;;;;;;;;;;5008457;28;20072;-75
2021/07/25 03:24:31;;;;;;;2.55;2.00;;;;;;;;;;5008235;28;20057;-75
2021/07/25 03:26:57;;;;;;;3.92;2.78;;;;;;;;;;5005285;28;20497;-75
2021/07/25 03:29:24;;;;;;;2.70;2.00;;;;;;;;;;5002326;28;20054;-76
2021/07/25 03:31:50;;;;;;;3.60;2.03;;;;;;;;;;4986728;28;20053;-75
2021/07/25 03:34:16;;;;;;;2.88;1.90;;;;;;;;;;5007444;28;20069;-76
2021/07/25 03:36:43;;;;;;;3.58;2.20;;;;;;;;;;5002948;28;20049;-75
2021/07/25 03:39:12;;;;;;;3.05;1.77;;;;;;;;;;4983492;28;20072;-75
2021/07/25 03:41:39;;;;;;;3.05;2.42;;;;;;;;;;5006427;28;20410;-75
2021/07/25 03:44:05;;;;;;;2.78;1.60;;;;;;;;;;4996851;28;20517;-75
2021/07/25 03:46:32;;;;;;;3.42;1.75;;;;;;;;;;5003052;28;20069;-75
2021/07/25 03:48:58;;;;;;;3.10;1.90;;;;;;;;;;5007143;28;20064;-75
2021/07/25 03:51:25;;;;;;;3.33;2.17;;;;;;;;;;4982706;28;20053;-75
2021/07/25 03:53:51;;;;;;;2.53;1.55;;;;;;;;;;4998994;28;20061;-76
2021/07/25 03:56:22;;;;;;;2.72;1.30;;;;;;;;;;5005506;28;20458;-76
2021/07/25 03:58:48;;;;;;;2.60;1.60;;;;;;;;;;5006488;28;20722;-76
2021/07/25 04:01:15;;;;;;;2.97;1.60;;;;;;;;;;4993616;28;20080;-76
2021/07/25 04:03:41;;;;;;;3.95;1.80;;;;;;;;;;5012142;28;20454;-75
2021/07/25 04:06:08;;;;;;;2.78;1.63;;;;;;;;;;5004454;28;20494;-75
2021/07/25 04:08:34;;;;;;;3.30;1.90;;;;;;;;;;4999056;28;20600;-75
2021/07/25 04:11:02;;;;;;;2.40;1.48;;;;;;;;;;4994360;28;20054;-75
2021/07/25 04:13:28;;;;;;;2.40;1.52;;;;;;;;;;5000001;28;20116;-75
2021/07/25 04:15:55;;;;;;;1.95;1.42;;;;;;;;;;5007378;28;20064;-75
2021/07/25 04:18:22;;;;;;;2.42;1.60;;;;;;;;;;4978950;28;20033;-76
2021/07/25 04:20:48;;;;;;;2.25;1.30;;;;;;;;;;5001167;28;20063;-75
2021/07/25 04:23:14;;;;;;;2.70;1.60;;;;;;;;;;5006841;28;20068;-75
2021/07/25 04:25:41;;;;;;;2.47;1.38;;;;;;;;;;5004423;28;20065;-76
2021/07/25 04:28:07;;;;;;;3.42;1.90;;;;;;;;;;5003385;28;20077;-75
2021/07/25 04:30:34;;;;;;;3.67;1.33;;;;;;;;;;4996829;28;20061;-75
2021/07/25 04:33:02;;;;;;;2.13;1.60;;;;;;;;;;5005735;28;20061;-75
2021/07/25 04:35:31;;;;;;;2.42;1.70;;;;;;;;;;5006521;28;20030;-75
2021/07/25 04:37:57;;;;;;;2.40;1.60;;;;;;;;;;4988046;28;20053;-75
2021/07/25 04:40:24;;;;;;;4.10;1.80;;;;;;;;;;5005975;28;20073;-76
2021/07/25 04:42:54;;;;;;;2.13;1.30;;;;;;;;;;5006110;28;20073;-75
2021/07/25 04:45:26;;;;;;;2.40;1.63;;;;;;;;;;5014260;28;20056;-76
2021/07/25 04:48:02;;;;;;;3.15;1.48;;;;;;;;;;5010084;28;20069;-75
2021/07/25 04:50:35;;;;;;;2.92;1.67;;;;;;;;;;5001329;28;20120;-75
2021/07/25 04:53:01;;;;;;;2.03;1.45;;;;;;;;;;4997552;28;20442;-75
2021/07/25 04:55:32;;;;;;;2.28;1.50;;;;;;;;;;5006022;28;20064;-76
2021/07/25 04:58:05;;;;;;;2.80;1.60;;;;;;;;;;5014114;28;20061;-76
2021/07/25 05:00:33;;;;;;;2.85;1.60;;;;;;;;;;5013915;28;20038;-77
2021/07/25 05:03:05;;;;;;;3.08;1.75;;;;;;;;;;5007527;28;20560;-76
2021/07/25 05:05:32;;;;;;;2.10;1.40;;;;;;;;;;5002644;28;20057;-76
2021/07/25 05:08:02;;;;;;;2.10;1.40;;;;;;;;;;5001048;28;20053;-76
2021/07/25 05:10:29;;;;;;;1.98;1.20;;;;;;;;;;4972217;28;20101;-76
2021/07/25 05:12:55;;;;;;;2.53;1.45;;;;;;;;;;4974288;28;20546;-76
2021/07/25 05:15:32;;;;;;;2.50;1.35;;;;;;;;;;4965083;28;20117;-77
2021/07/25 05:18:07;;;;;;;2.17;1.50;;;;;;;;;;4969053;28;20066;-75
2021/07/25 05:21:12;;;;;;;2.40;1.45;;;;;;;;;;4959263;28;20042;-75
2021/07/25 05:23:38;;;;;;;2.00;1.30;;;;;;;;;;4924773;29;20376;-75
2021/07/25 05:26:07;;;;;;;2.58;1.30;;;;;;;;;;4928462;29;20161;-76
2021/07/25 05:28:36;;;;;;;2.30;1.65;;;;;;;;;;4953657;28;20064;-76
2021/07/25 05:31:04;;;;;;;2.40;1.42;;;;;;;;;;4971038;28;20070;-76
2021/07/25 05:33:31;;;;;;;2.58;1.55;;;;;;;;;;4965783;28;20046;-76
2021/07/25 05:35:57;;;;;;;1.90;1.30;;;;;;;;;;4976473;28;20100;-76
2021/07/25 05:38:23;;;;;;;2.30;1.60;;;;;;;;;;4977497;28;20733;-76
2021/07/25 05:40:50;;;;;;;4.22;1.60;;;;;;;;;;4968909;28;20058;-76
2021/07/25 05:43:16;;;;;;;2.33;1.23;;;;;;;;;;4969901;28;20051;-76
2021/07/25 05:45:43;;;;;;;2.20;1.50;;;;;;;;;;4967980;28;20070;-75
2021/07/25 05:48:09;;;;;;;1.90;1.40;;;;;;;;;;4970991;28;20062;-75
2021/07/25 05:50:36;;;;;;;2.72;1.20;;;;;;;;;;4970122;28;20047;-75
2021/07/25 05:53:02;;;;;;;2.65;1.63;;;;;;;;;;4967072;28;20067;-75
2021/07/25 05:55:30;;;;;;;2.60;1.60;;;;;;;;;;4965383;28;20070;-75
2021/07/25 05:57:57;;;;;;;2.72;1.67;;;;;;;;;;4965823;28;20061;-75
2021/07/25 06:00:23;;;;;;;3.33;1.60;;;;;;;;;;4978647;28;20458;-76
2021/07/25 06:02:57;;;;;;;2.50;1.50;;;;;;;;;;4960883;28;20066;-76
2021/07/25 06:05:24;;;;;;;2.20;1.40;;;;;;;;;;4973134;28;20071;-76
2021/07/25 06:07:50;;;;;;;3.13;2.08;;;;;;;;;;4970469;28;20070;-76
2021/07/25 06:10:17;;;;;;;2.58;1.65;;;;;;;;;;4988897;28;20124;-75
2021/07/25 06:12:43;;;;;;;2.53;1.70;;;;;;;;;;4993529;28;20058;-75
2021/07/25 06:15:10;;;;;;;4.38;1.75;;;;;;;;;;4985849;28;20171;-75
2021/07/25 06:17:37;;;;;;;3.92;1.92;;;;;;;;;;4996918;28;20062;-75
2021/07/25 06:20:04;;;;;;;2.50;1.50;;;;;;;;;;4990584;28;20506;-75
2021/07/25 06:22:37;;;;;;;5.32;1.75;;;;;;;;;;4982436;28;20073;-75
2021/07/25 06:25:04;;;;;;;2.50;1.65;;;;;;;;;;4984151;28;20827;-76
2021/07/25 06:27:30;;;;;;;2.22;1.60;;;;;;;;;;4982792;28;20077;-75
2021/07/25 06:29:56;;;;;;;3.17;1.60;;;;;;;;;;5000136;28;20490;-75
2021/07/25 06:32:23;;;;;;;3.70;1.70;;;;;;;;;;4983861;28;20061;-75
2021/07/25 06:34:49;;;;;;;2.55;1.70;;;;;;;;;;4992432;28;20058;-75
2021/07/25 06:37:15;;;;;;;3.45;1.83;;;;;;;;;;4981773;28;20055;-76
2021/07/25 06:39:42;;;;;;;3.35;1.83;;;;;;;;;;4988670;28;20536;-75
2021/07/25 06:42:08;;;;;;;2.50;1.77;;;;;;;;;;4974868;28;20125;-75
2021/07/25 06:44:35;;;;;;;3.38;1.80;;;;;;;;;;4978336;28;20058;-75
2021/07/25 06:47:01;;;;;;;2.40;1.70;;;;;;;;;;4985097;28;20058;-75
2021/07/25 06:49:28;;;;;;;2.63;2.00;;;;;;;;;;4988018;28;20077;-75
2021/07/25 06:51:54;;;;;;;2.88;1.80;;;;;;;;;;4994871;28;20065;-75
2021/07/25 06:54:20;;;;;;;2.08;1.58;;;;;;;;;;4991211;28;20057;-76
2021/07/25 06:56:47;;;;;;;2.47;1.67;;;;;;;;;;4993851;28;20088;-75
2021/07/25 06:59:13;;;;;;;2.95;1.90;;;;;;;;;;4998360;28;20058;-76
2021/07/25 07:01:39;;;;;;;2.72;1.83;;;;;;;;;;4978976;28;21505;-75
2021/07/25 07:04:06;;;;;;;2.42;1.83;;;;;;;;;;4998926;28;20462;-75
2021/07/25 07:06:32;;;;;;;3.50;1.83;;;;;;;;;;4987697;28;20097;-76
2021/07/25 07:08:59;;;;;;;2.83;2.25;;;;;;;;;;4997499;28;20061;-75
2021/07/25 07:11:27;;;;;;;2.92;2.03;;;;;;;;;;4993107;28;20061;-76
2021/07/25 07:13:54;;;;;;;2.40;1.67;;;;;;;;;;4998658;28;20058;-75
2021/07/25 07:16:21;;;;;;;4.35;1.85;;;;;;;;;;5014028;28;20068;-75
2021/07/25 07:18:48;;;;;;;2.63;1.80;;;;;;;;;;4981421;28;20065;-75
2021/07/25 07:21:14;;;;;;;3.17;1.88;;;;;;;;;;5012483;28;20080;-76
2021/07/25 07:23:40;;;;;;;3.03;2.03;;;;;;;;;;5013800;28;20096;-77
2021/07/25 07:26:07;;;;;;;2.65;1.88;;;;;;;;;;4999332;28;20072;-75
2021/07/25 07:28:33;;;;;;;2.70;1.63;;;;;;;;;;4994446;28;20034;-75
2021/07/25 07:31:00;;;;;;;3.85;2.00;;;;;;;;;;5002119;28;20065;-76
2021/07/25 07:33:26;;;;;;;3.40;2.10;;;;;;;;;;5004466;28;20081;-75
2021/07/25 07:35:52;;;;;;;2.88;1.70;;;;;;;;;;5002147;28;20057;-75
2021/07/25 07:38:21;;;;;;;6.97;2.60;;;;;;;;;;5008808;28;20058;-75
2021/07/25 07:40:47;;;;;;;2.97;1.60;;;;;;;;;;5018523;28;20084;-75
2021/07/25 07:43:16;;;;;;;4.18;1.75;;;;;;;;;;4999163;28;20550;-77
2021/07/25 07:45:43;;;;;;;2.42;1.70;;;;;;;;;;5016585;28;20066;-76
2021/07/25 07:48:10;;;;;;;2.42;1.73;;;;;;;;;;4991235;28;20053;-75
2021/07/25 07:50:37;;;;;;;3.42;2.05;;;;;;;;;;4987735;28;20103;-75
2021/07/25 07:53:03;;;;;;;3.45;1.90;;;;;;;;;;5008171;28;20077;-75
2021/07/25 07:55:30;;;;;;;5.70;2.05;;;;;;;;;;5003966;28;20046;-75
2021/07/25 07:57:56;;;;;;;2.85;1.63;;;;;;;;;;4985756;28;20062;-75
2021/07/25 08:00:23;;;;;;;2.42;1.90;;;;;;;;;;5015116;28;20073;-75
2021/07/25 08:02:49;;;;;;;2.10;1.75;;;;;;;;;;5005801;28;20069;-74
2021/07/25 08:05:18;;;;;;;2.50;1.85;;;;;;;;;;4987247;28;20050;-75
2021/07/25 08:07:44;;;;;;;3.20;1.70;;;;;;;;;;5002506;28;20057;-75
2021/07/25 08:10:11;;;;;;;2.10;1.60;;;;;;;;;;5008366;28;20085;-75
2021/07/25 08:12:37;;;;;;;3.55;1.63;;;;;;;;;;5006339;28;20038;-75
2021/07/25 08:15:04;;;;;;;2.03;1.40;;;;;;;;;;5007415;28;20096;-75
2021/07/25 08:17:31;;;;;;;2.28;1.50;;;;;;;;;;5006640;28;20065;-76
2021/07/25 08:19:57;;;;;;;2.85;1.80;;;;;;;;;;5010515;28;20065;-76
2021/07/25 08:22:23;;;;;;;2.30;1.70;;;;;;;;;;4994662;28;20062;-76
2021/07/25 08:24:50;;;;;;;2.70;1.60;;;;;;;;;;5003878;28;20061;-76
2021/07/25 08:27:16;;;;;;;2.13;1.60;;;;;;;;;;5001908;28;20141;-77
2021/07/25 08:29:43;;;;;;;4.00;1.65;;;;;;;;;;4997081;28;20057;-77
2021/07/25 08:32:10;;;;;;;3.53;1.80;;;;;;;;;;5004645;28;20081;-76
2021/07/25 08:34:37;;;;;;;2.67;1.58;;;;;;;;;;5006138;28;20489;-76
2021/07/25 08:37:03;;;;;;;2.20;1.30;;;;;;;;;;5003064;28;20088;-76
2021/07/25 08:39:29;;;;;;;2.15;1.65;;;;;;;;;;5004643;28;20062;-76
2021/07/25 08:41:59;;;;;;;2.78;1.70;;;;;;;;;;5001949;28;20070;-76
2021/07/25 08:44:28;;;;;;;2.22;1.63;;;;;;;;;;5006527;28;20053;-76
2021/07/25 08:46:57;;;;;;;2.38;1.70;;;;;;;;;;5001703;28;20058;-75
2021/07/25 08:49:41;;;;;;;3.17;1.65;;;;;;;;;;5000070;28;20084;-76
2021/07/25 08:52:13;;;;;;;2.35;1.42;;;;;;;;;;5003216;28;20107;-76
2021/07/25 08:54:39;;;;;;;4.68;2.00;;;;;;;;;;5004489;28;20576;-76
2021/07/25 08:57:07;;;;;;;3.88;1.92;;;;;;;;;;4995452;28;20104;-76
2021/07/25 08:59:35;;;;;;;3.58;2.25;;;;;;;;;;5000773;28;20061;-75
2021/07/25 09:02:01;;;;;;;2.22;1.73;;;;;;;;;;4993667;28;20129;-76
2021/07/25 09:04:29;;;;;;;4.20;1.70;;;;;;;;;;4993182;28;20156;-75
2021/07/25 09:06:56;;;;;;;2.60;1.65;;;;;;;;;;5007555;28;20038;-75
2021/07/25 09:09:22;;;;;;;3.72;1.70;;;;;;;;;;4993809;28;20264;-76
2021/07/25 09:11:49;;;;;;;2.40;1.80;;;;;;;;;;5007359;28;20074;-76
2021/07/25 09:14:16;;;;;;;2.65;1.70;;;;;;;;;;5011556;28;20591;-76
2021/07/25 09:16:42;;;;;;;2.67;1.70;;;;;;;;;;5026923;28;20148;-76
2021/07/25 09:19:09;;;;;;;2.47;1.67;;;;;;;;;;5025659;28;20042;-77
2021/07/25 09:21:41;;;;;;;3.72;1.90;;;;;;;;;;5013531;28;20069;-75
2021/07/25 09:24:34;;;;;;;3.10;1.92;;;;;;;;;;4997172;28;20447;-75
2021/07/25 09:27:00;;;;;;;3.28;1.95;;;;;;;;;;4994087;28;21200;-75
2021/07/25 09:29:30;;;;;;;2.53;1.85;;;;;;;;;;5003804;28;20065;-76
2021/07/25 09:32:16;;;;;;;4.07;2.13;;;;;;;;;;4999606;28;20096;-76
2021/07/25 09:34:47;;;;;;;3.45;2.13;;;;;;;;;;5003465;28;20383;-76
2021/07/25 09:37:13;;;;;;;3.08;2.03;;;;;;;;;;4995808;28;20422;-76
2021/07/25 09:39:43;;;;;;;2.53;1.70;;;;;;;;;;5001004;28;20058;-76
2021/07/25 09:42:10;;;;;;;3.47;1.90;;;;;;;;;;5006249;28;20119;-76
2021/07/25 09:44:50;;;;;;;2.83;2.03;;;;;;;;;;5001909;28;20054;-75
2021/07/25 09:47:32;;;;;;;2.97;1.90;;;;;;;;;;5013098;28;20057;-75
2021/07/25 09:49:59;;;;;;;2.80;1.70;;;;;;;;;;5007373;28;20073;-76
2021/07/25 09:52:46;;;;;;;2.65;2.00;;;;;;;;;;5004524;28;20058;-76
2021/07/25 09:55:12;;;;;;;2.92;1.90;;;;;;;;;;5014676;28;20041;-76
2021/07/25 09:57:54;;;;;;;3.28;2.08;;;;;;;;;;5004633;28;20053;-76
2021/07/25 10:00:20;;;;;;;;;;;;;;;;;;5013555;28;20057;-76
2021/07/25 10:02:47;;;;;;;4.07;2.17;;;;;;;;;;5001587;28;20007;-76
2021/07/25 10:05:15;;;;;;;4.05;2.13;;;;;;;;;;5007241;28;20061;-76
2021/07/25 10:07:42;;;;;;;3.58;2.00;;;;;;;;;;4985984;28;20571;-76
2021/07/25 10:10:10;;;;;;;4.05;2.00;;;;;;;;;;5000644;28;20098;-76
2021/07/25 10:12:37;;;;;;;6.22;2.22;;;;;;;;;;5012092;28;20065;-75
2021/07/25 10:15:05;;;;;;;2.88;1.90;;;;;;;;;;5016602;28;20057;-76
2021/07/25 10:17:33;;;;;;;3.55;2.00;;;;;;;;;;5001284;28;20084;-76
2021/07/25 10:20:01;;;;;;;3.03;1.95;;;;;;;;;;5004947;28;20066;-76
2021/07/25 10:22:32;;;;;;;2.42;1.75;;;;;;;;;;5018643;28;20069;-76
2021/07/25 10:25:00;;;;;;;4.25;2.40;;;;;;;;;;4999820;28;20058;-76
2021/07/25 10:27:27;;;;;;;3.55;2.20;;;;;;;;;;5017161;28;20065;-76
2021/07/25 10:29:54;;;;;;;3.15;1.77;;;;;;;;;;5008589;28;20138;-76
2021/07/25 10:32:21;;;;;;;3.03;2.10;;;;;;;;;;5010982;28;20053;-75
2021/07/25 10:34:48;;;;;;;2.10;1.50;;;;;;;;;;4972567;28;20077;-75
2021/07/25 10:37:15;;;;;;;3.55;2.00;;;;;;;;;;4992130;28;20061;-77
2021/07/25 10:39:46;;;;;;;3.17;2.00;;;;;;;;;;5011409;28;20596;-76
2021/07/25 10:42:18;;;;;;;4.82;2.17;;;;;;;;;;5009737;28;20053;-76
2021/07/25 10:44:44;;;;;;;8.50;2.10;;;;;;;;;;4996987;28;22715;-75
2021/07/25 10:47:20;;;;;;;4.70;2.67;;;;;;;;;;5013969;28;20041;-75
2021/07/25 10:49:56;;;;;;;4.38;2.47;;;;;;;;;;5009119;28;21383;-75
2021/07/25 10:52:22;;;;;;;2.95;2.13;;;;;;;;;;5004891;28;20474;-75
2021/07/25 10:54:49;;;;;;;3.45;2.30;;;;;;;;;;5007167;28;20143;-76
2021/07/25 10:57:15;;;;;;;2.67;1.73;;;;;;;;;;5006355;28;20038;-76
2021/07/25 10:59:42;;;;;;;3.05;1.98;;;;;;;;;;5012389;28;20764;-78
2021/07/25 11:02:29;;;;;;;5.55;2.30;;;;;;;;;;4995519;28;20097;-76
2021/07/25 11:05:00;;;;;;;3.00;2.33;;;;;;;;;;5004031;28;20072;-76
2021/07/25 11:07:36;;;;;;;3.15;2.05;;;;;;;;;;5007946;28;20509;-74
2021/07/25 11:10:12;;;;;;;3.92;1.90;;;;;;;;;;5010151;28;20069;-76
2021/07/25 11:12:50;;;;;;;2.85;2.00;;;;;;;;;;5001963;28;20505;-75
2021/07/25 11:15:34;;;;;;;3.10;2.33;;;;;;;;;;4996782;28;20058;-76
2021/07/25 11:18:16;;;;;;;3.28;2.00;;;;;;;;;;5018951;28;20116;-75
2021/07/25 11:20:58;;;;;;;3.45;2.10;;;;;;;;;;5002236;28;20030;-74
2021/07/25 11:23:24;;;;;;;4.10;2.45;;;;;;;;;;5001700;28;20099;-75
2021/07/25 11:25:52;;;;;;;4.78;2.45;;;;;;;;;;5006196;28;20065;-75
2021/07/25 11:28:45;;;;;;;3.03;2.20;;;;;;;;;;5009865;28;20029;-75
2021/07/25 11:31:18;;;;;;;3.38;2.30;;;;;;;;;;5018507;28;20042;-75
2021/07/25 11:33:47;;;;;;;3.30;2.30;;;;;;;;;;5011728;28;20473;-75
2021/07/25 11:36:15;;;;;;;3.85;2.20;;;;;;;;;;5003243;28;20065;-76
2021/07/25 11:38:43;;;;;;;2.92;2.20;;;;;;;;;;5003933;28;20753;-75
2021/07/25 11:41:10;;;;;;;4.55;2.40;;;;;;;;;;5011531;28;20030;-75
2021/07/25 11:43:55;;;;;;;3.15;2.03;;;;;;;;;;5013050;28;20123;-74
2021/07/25 11:46:42;;;;;;;3.70;2.08;;;;;;;;;;5007638;28;20096;-75
2021/07/25 11:49:24;;;;;;;4.57;2.53;;;;;;;;;;5019250;28;20061;-74
2021/07/25 11:51:55;;;;;;;4.75;2.33;;;;;;;;;;5010623;28;20135;-74
2021/07/25 11:54:26;;;;;;;3.33;2.60;;;;;;;;;;5009819;28;20057;-75
2021/07/25 11:57:00;;;;;;;3.17;2.05;;;;;;;;;;5009708;28;20115;-74
2021/07/25 11:59:27;;;;;;;4.38;2.60;;;;;;;;;;4977119;28;20053;-74
2021/07/25 12:01:54;;;;;;;3.42;2.05;;;;;;;;;;5016580;28;20496;-74
2021/07/25 12:04:20;;;;;;;3.15;2.15;;;;;;;;;;5007079;28;20088;-75
2021/07/25 12:06:47;;;;;;;3.88;2.35;;;;;;;;;;5007306;28;20076;-74
2021/07/25 12:09:13;;;;;;;2.58;2.03;;;;;;;;;;5010787;28;20044;-75
2021/07/25 12:11:40;;;;;;;5.32;2.22;;;;;;;;;;5011185;28;20307;-75
2021/07/25 12:14:07;;;;;;;4.47;2.42;;;;;;;;;;5007228;28;20053;-75
2021/07/25 12:16:46;;;;;;;3.83;2.40;;;;;;;;;;5004697;28;20070;-75
2021/07/25 12:19:13;;;;;;;3.38;2.72;;;;;;;;;;5017293;28;20050;-75
2021/07/25 12:21:40;;;;;;;3.10;2.22;;;;;;;;;;5002326;28;20061;-75
2021/07/25 12:24:24;;;;;;;3.67;2.40;;;;;;;;;;5006340;28;20046;-75
2021/07/25 12:26:50;;;;;;;3.08;2.20;;;;;;;;;;4994674;28;21293;-75
2021/07/25 12:29:35;;;;;;;3.80;2.40;;;;;;;;;;5003275;28;20072;-76
2021/07/25 12:32:20;;;;;;;3.42;2.25;;;;;;;;;;5004246;28;20737;-74
2021/07/25 12:34:46;;;;;;;2.60;2.00;;;;;;;;;;5005248;28;21143;-74
2021/07/25 12:37:30;;;;;;;2.97;2.40;;;;;;;;;;4990310;28;20080;-74
2021/07/25 12:40:03;;;;;;;4.72;2.72;;;;;;;;;;5001167;28;21368;-75
2021/07/25 12:42:36;;;;;;;3.30;2.15;;;;;;;;;;5011219;28;20065;-75
2021/07/25 12:45:21;;;;;;;3.53;2.65;;;;;;;;;;4996191;28;20096;-74
2021/07/25 12:47:48;;;;;;;3.33;1.98;;;;;;;;;;5009516;28;21379;-74
2021/07/25 12:50:14;;;;;;;3.75;2.50;;;;;;;;;;5007581;28;20069;-74
2021/07/25 12:52:41;;;;;;;4.80;2.90;;;;;;;;;;5000366;28;20064;-76
2021/07/25 12:55:08;;;;;;;3.92;2.17;;;;;;;;;;5024848;28;20590;-75
2021/07/25 12:57:34;;;;;;;3.35;2.30;;;;;;;;;;5020472;28;20038;-75
2021/07/25 13:00:01;;;;;;;3.70;2.50;;;;;;;;;;5025150;28;20057;-76
2021/07/25 13:05:12;;;;;;;4.00;2.58;;;;;;;;;;5024583;28;20041;-76
2021/07/25 13:07:38;;;;;;;4.50;2.83;;;;;;;;;;5013865;28;20057;-76
2021/07/25 13:10:05;;;;;;;3.92;2.30;;;;;;;;;;5011037;28;20471;-76
2021/07/25 13:12:31;;;;;;;4.15;2.83;;;;;;;;;;5007850;28;20135;-75
2021/07/25 13:14:58;;;;;;;3.78;2.58;;;;;;;;;;5004446;28;20069;-76
2021/07/25 13:17:24;;;;;;;3.78;2.30;;;;;;;;;;4983655;28;20459;-76
2021/07/25 13:19:50;;;;;;;2.90;2.30;;;;;;;;;;5006251;28;20186;-74
2021/07/25 13:22:17;;;;;;;3.53;2.50;;;;;;;;;;5004229;28;20045;-76
2021/07/25 13:24:43;;;;;;;3.65;2.65;;;;;;;;;;5002988;28;20064;-74
2021/07/25 13:27:10;;;;;;;3.28;2.50;;;;;;;;;;5010675;28;20410;-75
2021/07/25 13:29:36;;;;;;;3.85;2.60;;;;;;;;;;5009737;28;20085;-75
2021/07/25 13:32:02;;;;;;;3.53;2.33;;;;;;;;;;5002207;28;20076;-75
2021/07/25 13:34:29;;;;;;;3.90;2.75;;;;;;;;;;4993700;28;20643;-75
2021/07/25 13:36:55;;;;;;;3.90;3.05;;;;;;;;;;5003900;28;20135;-75
2021/07/25 13:39:22;;;;;;;4.93;3.05;;;;;;;;;;5011174;28;20068;-75
2021/07/25 13:41:49;;;;;;;4.20;2.65;;;;;;;;;;4992154;28;20078;-75
2021/07/25 13:44:15;;;;;;;4.68;2.80;;;;;;;;;;4982387;28;20069;-77
2021/07/25 13:47:15;;;;;;;4.75;2.60;;;;;;;;;;5005727;28;20501;-75
2021/07/25 13:49:34;;;;;;;4.72;2.70;;;;;;;;;;5008161;28;20493;-75
2021/07/25 13:52:01;;;;;;;3.33;2.33;;;;;;;;;;5010746;28;20081;-75
2021/07/25 13:54:27;;;;;;;3.22;2.40;;;;;;;;;;5012650;28;20470;-75
2021/07/25 13:56:55;;;;;;;4.57;2.83;;;;;;;;;;5016480;28;20057;-75
2021/07/25 13:59:21;;;;;;;5.28;3.00;;;;;;;;;;5017712;28;20682;-76
2021/07/25 14:01:47;;;;;;;4.32;3.20;;;;;;;;;;5021203;28;20061;-74
2021/07/25 14:04:14;;;;;;;5.80;2.88;;;;;;;;;;5009511;28;20057;-75
2021/07/25 14:06:40;;;;;;;3.88;2.92;;;;;;;;;;5006611;28;21215;-75
2021/07/25 14:09:06;;;;;;;5.20;3.10;;;;;;;;;;5017591;28;20673;-75
2021/07/25 14:11:33;;;;;;;5.53;3.78;;;;;;;;;;4998033;28;20058;-76
2021/07/25 14:13:59;;;;;;;4.05;2.92;;;;;;;;;;5017322;28;20080;-75
2021/07/25 14:16:26;;;;;;;4.38;3.63;;;;;;;;;;5006643;28;20050;-76
2021/07/25 14:18:53;;;;;;;5.43;3.42;;;;;;;;;;5009211;28;20061;-75
2021/07/25 14:21:20;;;;;;;5.82;3.95;;;;;;;;;;5008526;28;20062;-76
2021/07/25 14:23:46;;;;;;;4.75;3.03;;;;;;;;;;5005830;28;20089;-76
2021/07/25 14:26:13;;;;;;;4.40;3.42;;;;;;;;;;5009480;28;20066;-75
2021/07/25 14:28:40;;;;;;;4.60;3.50;;;;;;;;;;5004523;28;20060;-76
2021/07/25 14:31:07;;;;;;;5.55;3.65;;;;;;;;;;5014183;28;20784;-75
2021/07/25 14:33:37;;;;;;;5.28;3.90;;;;;;;;;;5010734;28;20061;-76
2021/07/25 14:36:04;;;;;;;5.22;3.92;;;;;;;;;;5012825;28;20109;-76
2021/07/25 14:38:31;;;;;;;4.47;3.97;;;;;;;;;;5007683;28;20501;-76
2021/07/25 14:40:57;;;;;;;5.05;3.95;;;;;;;;;;4990927;28;20123;-74
2021/07/25 14:43:24;;;;;;;5.45;3.80;;;;;;;;;;5010345;28;20058;-75
2021/07/25 14:45:50;;;;;;;5.43;3.50;;;;;;;;;;5013709;28;20499;-76
2021/07/25 14:48:18;;;;;;;6.20;3.28;;;;;;;;;;5004488;28;20057;-77
2021/07/25 14:50:44;;;;;;;4.32;3.50;;;;;;;;;;4995470;28;20064;-75
2021/07/25 14:53:10;;;;;;;4.85;3.83;;;;;;;;;;5016422;28;20069;-74